createdAt,value
2016-07-21T00:00:04.510Z,74515
2016-07-21T00:00:13.212Z,74515
2016-07-21T00:00:21.907Z,74513
2016-07-21T00:00:30.640Z,74517
2016-07-21T00:00:39.322Z,74516
2016-07-21T00:00:48.742Z,74519
2016-07-21T00:00:57.458Z,74518
2016-07-21T00:01:06.224Z,74517
2016-07-21T00:01:14.927Z,74518
2016-07-21T00:01:24.321Z,74516
2016-07-21T00:01:33.077Z,74519
2016-07-21T00:01:41.768Z,74520
2016-07-21T00:01:50.453Z,74517
2016-07-21T00:01:59.177Z,74516
2016-07-21T00:02:07.879Z,74519
2016-07-21T00:02:16.627Z,74517
2016-07-21T00:02:25.328Z,74515
2016-07-21T00:02:34.055Z,74518
2016-07-21T00:02:42.747Z,74518
2016-07-21T00:02:51.446Z,74520
2016-07-21T00:03:00.155Z,74517
2016-07-21T00:03:08.854Z,74516
2016-07-21T00:03:17.558Z,74516
2016-07-21T00:03:26.243Z,74515
2016-07-21T00:03:34.997Z,74517
2016-07-21T00:03:44.382Z,74517
2016-07-21T00:03:53.099Z,74514
2016-07-21T00:04:01.812Z,74516
2016-07-21T00:04:10.469Z,74514
2016-07-21T00:04:19.158Z,74516
2016-07-21T00:04:27.915Z,74516
2016-07-21T00:04:36.658Z,74521
2016-07-21T00:04:45.423Z,74514
2016-07-21T00:04:54.161Z,74519
2016-07-21T00:05:02.868Z,74514
2016-07-21T00:05:11.604Z,74519
2016-07-21T00:05:20.301Z,74516
2016-07-21T00:05:29.035Z,74516
2016-07-21T00:05:37.730Z,74517
2016-07-21T00:05:46.416Z,74519
2016-07-21T00:05:55.120Z,74517
2016-07-21T00:06:03.842Z,74515
2016-07-21T00:06:12.564Z,74519
2016-07-21T00:06:21.260Z,74514
2016-07-21T00:06:29.951Z,74515
2016-07-21T00:06:38.697Z,74515
2016-07-21T00:06:47.409Z,74514
2016-07-21T00:06:56.118Z,74516
2016-07-21T00:07:04.817Z,74513
2016-07-21T00:07:13.519Z,74512
2016-07-21T00:07:22.217Z,74513
2016-07-21T00:07:30.889Z,74517
2016-07-21T00:07:39.572Z,74512
2016-07-21T00:07:48.291Z,74511
2016-07-21T00:07:57.028Z,74510
2016-07-21T00:08:05.729Z,74513
2016-07-21T00:08:14.429Z,74514
2016-07-21T00:08:23.169Z,74513
2016-07-21T00:08:31.851Z,74509
2016-07-21T00:08:40.578Z,74510
2016-07-21T00:08:49.245Z,74511
2016-07-21T00:08:57.933Z,74506
2016-07-21T00:09:06.682Z,74506
2016-07-21T00:09:15.378Z,74513
2016-07-21T00:09:24.115Z,74505
2016-07-21T00:09:33.529Z,74508
2016-07-21T00:09:42.242Z,74505
2016-07-21T00:09:50.944Z,74508
2016-07-21T00:09:59.666Z,74506
2016-07-21T00:10:08.409Z,74508
2016-07-21T00:10:17.096Z,74506
2016-07-21T00:10:25.793Z,74506
2016-07-21T00:10:34.490Z,74503
2016-07-21T00:10:43.909Z,74502
2016-07-21T00:10:52.595Z,74507
2016-07-21T00:11:01.285Z,74508
2016-07-21T00:11:10.001Z,74510
2016-07-21T00:11:18.719Z,74506
2016-07-21T00:11:27.436Z,74507
2016-07-21T00:11:36.135Z,74504
2016-07-21T00:11:44.856Z,74506
2016-07-21T00:11:53.545Z,74509
2016-07-21T00:12:02.266Z,74503
2016-07-21T00:12:11.010Z,74507
2016-07-21T00:12:19.724Z,74506
2016-07-21T00:12:28.445Z,74506
2016-07-21T00:12:37.190Z,74501
2016-07-21T00:12:45.891Z,74507
2016-07-21T00:12:54.625Z,74504
2016-07-21T00:13:03.368Z,74506
2016-07-21T00:13:12.076Z,74506
2016-07-21T00:13:20.767Z,74505
2016-07-21T00:13:29.482Z,74504
2016-07-21T00:13:38.163Z,74505
2016-07-21T00:13:46.855Z,74507
2016-07-21T00:13:55.567Z,74505
2016-07-21T00:14:04.273Z,74507
2016-07-21T00:14:12.962Z,74506
2016-07-21T00:14:21.662Z,74506
2016-07-21T00:14:30.343Z,74504
2016-07-21T00:14:39.078Z,74504
2016-07-21T00:14:47.795Z,74502
2016-07-21T00:14:56.517Z,74507
2016-07-21T00:15:05.880Z,74503
2016-07-21T00:15:14.561Z,74504
2016-07-21T00:15:23.257Z,74507
2016-07-21T00:15:31.982Z,74503
2016-07-21T00:15:40.686Z,74506
2016-07-21T00:15:49.393Z,74502
2016-07-21T00:15:58.137Z,74507
2016-07-21T00:16:06.834Z,74504
2016-07-21T00:16:15.556Z,74505
2016-07-21T00:16:24.278Z,74503
2016-07-21T00:16:32.974Z,74500
2016-07-21T00:16:41.673Z,74503
2016-07-21T00:16:50.387Z,74509
2016-07-21T00:16:59.083Z,74503
2016-07-21T00:17:07.771Z,74506
2016-07-21T00:17:16.515Z,74505
2016-07-21T00:17:25.230Z,74503
2016-07-21T00:17:33.970Z,74503
2016-07-21T00:17:42.698Z,74508
2016-07-21T00:17:51.377Z,74506
2016-07-21T00:18:00.124Z,74507
2016-07-21T00:18:08.796Z,74507
2016-07-21T00:18:17.526Z,74507
2016-07-21T00:18:26.207Z,74503
2016-07-21T00:18:34.920Z,74508
2016-07-21T00:18:43.647Z,74508
2016-07-21T00:18:52.386Z,74503
2016-07-21T00:19:01.105Z,74506
2016-07-21T00:19:09.815Z,74508
2016-07-21T00:19:18.524Z,74507
2016-07-21T00:19:27.219Z,74512
2016-07-21T00:19:35.909Z,74509
2016-07-21T00:19:44.653Z,74513
2016-07-21T00:19:54.069Z,74514
2016-07-21T00:20:02.796Z,74507
2016-07-21T00:20:11.515Z,74509
2016-07-21T00:20:20.256Z,74503
2016-07-21T00:20:29.674Z,74506
2016-07-21T00:20:38.395Z,74509
2016-07-21T00:20:47.098Z,74504
2016-07-21T00:20:55.822Z,74504
2016-07-21T00:21:04.543Z,74508
2016-07-21T00:21:13.230Z,74507
2016-07-21T00:21:21.961Z,74508
2016-07-21T00:21:30.661Z,74505
2016-07-21T00:21:39.364Z,74508
2016-07-21T00:21:48.087Z,74508
2016-07-21T00:21:56.820Z,74510
2016-07-21T00:22:05.536Z,74509
2016-07-21T00:22:14.258Z,74505
2016-07-21T00:22:22.976Z,74500
2016-07-21T00:22:31.691Z,74504
2016-07-21T00:22:40.358Z,74504
2016-07-21T00:22:49.020Z,74510
2016-07-21T00:22:57.743Z,74505
2016-07-21T00:23:06.439Z,74500
2016-07-21T00:23:15.169Z,74503
2016-07-21T00:23:23.937Z,74509
2016-07-21T00:23:32.672Z,74501
2016-07-21T00:23:41.437Z,74501
2016-07-21T00:23:50.175Z,74503
2016-07-21T00:23:58.869Z,74501
2016-07-21T00:24:07.587Z,74507
2016-07-21T00:24:16.318Z,74506
2016-07-21T00:24:24.977Z,74502
2016-07-21T00:24:33.703Z,74500
2016-07-21T00:24:42.384Z,74505
2016-07-21T00:24:51.126Z,74504
2016-07-21T00:24:59.842Z,74502
2016-07-21T00:25:08.559Z,74501
2016-07-21T00:25:17.264Z,74503
2016-07-21T00:25:25.983Z,74506
2016-07-21T00:25:34.675Z,74502
2016-07-21T00:25:43.415Z,74499
2016-07-21T00:25:52.106Z,74500
2016-07-21T00:26:00.799Z,74502
2016-07-21T00:26:09.523Z,74503
2016-07-21T00:26:18.219Z,74501
2016-07-21T00:26:26.937Z,74503
2016-07-21T00:26:35.654Z,74504
2016-07-21T00:26:44.369Z,74511
2016-07-21T00:26:53.071Z,74509
2016-07-21T00:27:01.820Z,74505
2016-07-21T00:27:10.520Z,74504
2016-07-21T00:27:19.184Z,74504
2016-07-21T00:27:27.882Z,74507
2016-07-21T00:27:36.582Z,74508
2016-07-21T00:27:45.321Z,74505
2016-07-21T00:27:54.003Z,74506
2016-07-21T00:28:02.693Z,74507
2016-07-21T00:28:11.391Z,74503
2016-07-21T00:28:20.079Z,74505
2016-07-21T00:28:28.783Z,74501
2016-07-21T00:28:37.503Z,74504
2016-07-21T00:28:46.203Z,74506
2016-07-21T00:28:55.586Z,74507
2016-07-21T00:29:04.290Z,74503
2016-07-21T00:29:13.029Z,74502
2016-07-21T00:29:21.751Z,74505
2016-07-21T00:29:30.492Z,74499
2016-07-21T00:29:39.217Z,74506
2016-07-21T00:29:47.903Z,74502
2016-07-21T00:29:56.590Z,74502
2016-07-21T00:30:05.288Z,74506
2016-07-21T00:30:13.999Z,74506
2016-07-21T00:30:22.709Z,74507
2016-07-21T00:30:31.469Z,74502
2016-07-21T00:30:40.178Z,74503
2016-07-21T00:30:48.900Z,74505
2016-07-21T00:30:57.618Z,74503
2016-07-21T00:31:06.323Z,74502
2016-07-21T00:31:15.022Z,74504
2016-07-21T00:31:23.752Z,74510
2016-07-21T00:31:32.463Z,74511
2016-07-21T00:31:41.206Z,74503
2016-07-21T00:31:49.908Z,74505
2016-07-21T00:31:58.616Z,74502
2016-07-21T00:32:07.356Z,74504
2016-07-21T00:32:16.721Z,74506
2016-07-21T00:32:25.428Z,74504
2016-07-21T00:32:34.162Z,74502
2016-07-21T00:32:42.908Z,74504
2016-07-21T00:32:51.608Z,74504
2016-07-21T00:33:00.321Z,74497
2016-07-21T00:33:09.027Z,74498
2016-07-21T00:33:17.802Z,74499
2016-07-21T00:33:26.528Z,74503
2016-07-21T00:33:35.198Z,74500
2016-07-21T00:33:43.926Z,74501
2016-07-21T00:33:52.643Z,74503
2016-07-21T00:34:01.318Z,74502
2016-07-21T00:34:10.016Z,74501
2016-07-21T00:34:18.699Z,74497
2016-07-21T00:34:27.398Z,74500
2016-07-21T00:34:36.141Z,74501
2016-07-21T00:34:44.864Z,74500
2016-07-21T00:34:53.574Z,74500
2016-07-21T00:35:02.270Z,74496
2016-07-21T00:35:10.971Z,74497
2016-07-21T00:35:19.696Z,74497
2016-07-21T00:35:28.424Z,74499
2016-07-21T00:35:37.131Z,74504
2016-07-21T00:35:45.840Z,74500
2016-07-21T00:35:54.564Z,74497
2016-07-21T00:36:03.245Z,74499
2016-07-21T00:36:11.916Z,74503
2016-07-21T00:36:20.578Z,74500
2016-07-21T00:36:29.391Z,74500
2016-07-21T00:36:38.111Z,74501
2016-07-21T00:36:46.804Z,74498
2016-07-21T00:36:55.497Z,74500
2016-07-21T00:37:04.253Z,74495
2016-07-21T00:37:12.969Z,74498
2016-07-21T00:37:21.666Z,74496
2016-07-21T00:37:30.364Z,74498
2016-07-21T00:37:39.086Z,74495
2016-07-21T00:37:47.815Z,74498
2016-07-21T00:37:56.527Z,74494
2016-07-21T00:38:05.209Z,74497
2016-07-21T00:38:13.888Z,74498
2016-07-21T00:38:22.586Z,74501
2016-07-21T00:38:31.285Z,74500
2016-07-21T00:38:39.990Z,74497
2016-07-21T00:38:48.678Z,74496
2016-07-21T00:38:57.396Z,74499
2016-07-21T00:39:06.121Z,74495
2016-07-21T00:39:14.827Z,74496
2016-07-21T00:39:23.574Z,74496
2016-07-21T00:39:32.271Z,74496
2016-07-21T00:39:40.978Z,74494
2016-07-21T00:39:49.676Z,74492
2016-07-21T00:39:58.393Z,74494
2016-07-21T00:40:07.122Z,74495
2016-07-21T00:40:15.844Z,74492
2016-07-21T00:40:24.575Z,74495
2016-07-21T00:40:33.271Z,74495
2016-07-21T00:40:41.952Z,74495
2016-07-21T00:40:50.632Z,74496
2016-07-21T00:40:59.315Z,74491
2016-07-21T00:41:08.058Z,74492
2016-07-21T00:41:16.786Z,74495
2016-07-21T00:41:25.528Z,74497
2016-07-21T00:41:34.246Z,74494
2016-07-21T00:41:42.968Z,74491
2016-07-21T00:41:51.693Z,74493
2016-07-21T00:42:00.423Z,74493
2016-07-21T00:42:09.104Z,74494
2016-07-21T00:42:17.810Z,74495
2016-07-21T00:42:26.502Z,74490
2016-07-21T00:42:35.188Z,74487
2016-07-21T00:42:43.879Z,74490
2016-07-21T00:42:52.562Z,74490
2016-07-21T00:43:01.949Z,74489
2016-07-21T00:43:10.647Z,74491
2016-07-21T00:43:19.368Z,74490
2016-07-21T00:43:28.075Z,74491
2016-07-21T00:43:36.815Z,74492
2016-07-21T00:43:45.557Z,74492
2016-07-21T00:43:54.251Z,74491
2016-07-21T00:44:02.952Z,74490
2016-07-21T00:44:11.620Z,74491
2016-07-21T00:44:20.297Z,74492
2016-07-21T00:44:29.008Z,74487
2016-07-21T00:44:37.709Z,74487
2016-07-21T00:44:46.388Z,74492
2016-07-21T00:44:55.090Z,74489
2016-07-21T00:45:03.821Z,74487
2016-07-21T00:45:12.555Z,74490
2016-07-21T00:45:21.293Z,74490
2016-07-21T00:45:30.035Z,74485
2016-07-21T00:45:38.746Z,74489
2016-07-21T00:45:47.481Z,74489
2016-07-21T00:45:56.159Z,74488
2016-07-21T00:46:04.869Z,74486
2016-07-21T00:46:13.592Z,74491
2016-07-21T00:46:22.303Z,74489
2016-07-21T00:46:31.005Z,74489
2016-07-21T00:46:39.739Z,74486
2016-07-21T00:46:48.443Z,74490
2016-07-21T00:46:57.175Z,74489
2016-07-21T00:47:05.920Z,74487
2016-07-21T00:47:14.630Z,74494
2016-07-21T00:47:23.326Z,74491
2016-07-21T00:47:32.058Z,74483
2016-07-21T00:47:40.834Z,74493
2016-07-21T00:47:49.534Z,74489
2016-07-21T00:47:58.285Z,74491
2016-07-21T00:48:06.999Z,74492
2016-07-21T00:48:15.684Z,74488
2016-07-21T00:48:25.047Z,74488
2016-07-21T00:48:33.750Z,74488
2016-07-21T00:48:42.424Z,74490
2016-07-21T00:48:51.124Z,74489
2016-07-21T00:48:59.871Z,74488
2016-07-21T00:49:08.628Z,74490
2016-07-21T00:49:17.408Z,74490
2016-07-21T00:49:26.126Z,74488
2016-07-21T00:49:34.835Z,74491
2016-07-21T00:49:43.574Z,74487
2016-07-21T00:49:52.293Z,74485
2016-07-21T00:50:00.982Z,74490
2016-07-21T00:50:09.695Z,74491
2016-07-21T00:50:18.437Z,74488
2016-07-21T00:50:27.187Z,74488
2016-07-21T00:50:35.946Z,74489
2016-07-21T00:50:44.602Z,74489
2016-07-21T00:50:53.284Z,74485
2016-07-21T00:51:01.945Z,74488
2016-07-21T00:51:10.661Z,74491
2016-07-21T00:51:19.357Z,74487
2016-07-21T00:51:28.082Z,74491
2016-07-21T00:51:36.796Z,74489
2016-07-21T00:51:45.479Z,74490
2016-07-21T00:51:54.186Z,74486
2016-07-21T00:52:02.902Z,74489
2016-07-21T00:52:11.605Z,74487
2016-07-21T00:52:20.310Z,74488
2016-07-21T00:52:28.965Z,74492
2016-07-21T00:52:37.651Z,74489
2016-07-21T00:52:46.377Z,74492
2016-07-21T00:52:55.101Z,74487
2016-07-21T00:53:03.841Z,74491
2016-07-21T00:53:12.556Z,74488
2016-07-21T00:53:21.279Z,74488
2016-07-21T00:53:29.982Z,74486
2016-07-21T00:53:38.699Z,74485
2016-07-21T00:53:47.432Z,74487
2016-07-21T00:53:56.088Z,74487
2016-07-21T00:54:04.809Z,74487
2016-07-21T00:54:13.488Z,74490
2016-07-21T00:54:22.177Z,74486
2016-07-21T00:54:30.897Z,74491
2016-07-21T00:54:39.607Z,74488
2016-07-21T00:54:48.318Z,74486
2016-07-21T00:54:57.010Z,74487
2016-07-21T00:55:05.700Z,74485
2016-07-21T00:55:14.445Z,74488
2016-07-21T00:55:23.185Z,74485
2016-07-21T00:55:31.906Z,74488
2016-07-21T00:55:40.604Z,74488
2016-07-21T00:55:49.328Z,74487
2016-07-21T00:55:58.053Z,74483
2016-07-21T00:56:06.785Z,74482
2016-07-21T00:56:15.488Z,74486
2016-07-21T00:56:24.222Z,74483
2016-07-21T00:56:32.889Z,74482
2016-07-21T00:56:41.624Z,74486
2016-07-21T00:56:50.362Z,74484
2016-07-21T00:56:59.022Z,74487
2016-07-21T00:57:07.753Z,74484
2016-07-21T00:57:16.431Z,74483
2016-07-21T00:57:25.150Z,74484
2016-07-21T00:57:33.844Z,74487
2016-07-21T00:57:42.530Z,74478
2016-07-21T00:57:51.262Z,74482
2016-07-21T00:57:59.966Z,74484
2016-07-21T00:58:08.650Z,74482
2016-07-21T00:58:17.364Z,74485
2016-07-21T00:58:26.104Z,74481
2016-07-21T00:58:34.841Z,74483
2016-07-21T00:58:43.552Z,74485
2016-07-21T00:58:52.276Z,74482
2016-07-21T00:59:01.653Z,74480
2016-07-21T00:59:10.362Z,74481
2016-07-21T00:59:19.041Z,74483
2016-07-21T00:59:27.772Z,74483
2016-07-21T00:59:36.494Z,74483
2016-07-21T00:59:45.205Z,74484
2016-07-21T00:59:53.912Z,74485
2016-07-21T01:00:02.637Z,74485
2016-07-21T01:00:11.396Z,74481
2016-07-21T01:00:20.123Z,74482
2016-07-21T01:00:28.803Z,74483
2016-07-21T01:00:37.521Z,74478
2016-07-21T01:00:46.241Z,74480
2016-07-21T01:00:54.979Z,74482
2016-07-21T01:01:03.674Z,74481
2016-07-21T01:01:12.421Z,74478
2016-07-21T01:01:21.134Z,74482
2016-07-21T01:01:29.831Z,74479
2016-07-21T01:01:38.504Z,74478
2016-07-21T01:01:47.181Z,74480
2016-07-21T01:01:55.889Z,74479
2016-07-21T01:02:04.592Z,74479
2016-07-21T01:02:13.315Z,74475
2016-07-21T01:02:22.012Z,74476
2016-07-21T01:02:30.700Z,74480
2016-07-21T01:02:40.121Z,74480
2016-07-21T01:02:49.510Z,74477
2016-07-21T01:02:58.226Z,74476
2016-07-21T01:03:06.939Z,74477
2016-07-21T01:03:15.636Z,74481
2016-07-21T01:03:24.353Z,74479
2016-07-21T01:03:33.070Z,74476
2016-07-21T01:03:41.820Z,74477
2016-07-21T01:03:50.512Z,74480
2016-07-21T01:03:59.260Z,74474
2016-07-21T01:04:07.983Z,74480
2016-07-21T01:04:16.694Z,74474
2016-07-21T01:04:25.418Z,74476
2016-07-21T01:04:34.103Z,74478
2016-07-21T01:04:43.507Z,74477
2016-07-21T01:04:52.253Z,74475
2016-07-21T01:05:00.955Z,74478
2016-07-21T01:05:09.659Z,74476
2016-07-21T01:05:18.359Z,74478
2016-07-21T01:05:27.044Z,74477
2016-07-21T01:05:35.754Z,74480
2016-07-21T01:05:44.434Z,74470
2016-07-21T01:05:53.169Z,74473
2016-07-21T01:06:01.879Z,74475
2016-07-21T01:06:10.596Z,74475
2016-07-21T01:06:20.005Z,74480
2016-07-21T01:06:28.762Z,74477
2016-07-21T01:06:37.457Z,74475
2016-07-21T01:06:46.155Z,74475
2016-07-21T01:06:54.886Z,74479
2016-07-21T01:07:03.550Z,74481
2016-07-21T01:07:12.262Z,74475
2016-07-21T01:07:20.965Z,74478
2016-07-21T01:07:29.735Z,74476
2016-07-21T01:07:38.445Z,74478
2016-07-21T01:07:47.174Z,74477
2016-07-21T01:07:55.882Z,74477
2016-07-21T01:08:04.584Z,74478
2016-07-21T01:08:13.280Z,74476
2016-07-21T01:08:22.651Z,74479
2016-07-21T01:08:31.347Z,74479
2016-07-21T01:08:40.068Z,74475
2016-07-21T01:08:48.759Z,74474
2016-07-21T01:08:57.447Z,74474
2016-07-21T01:09:06.187Z,74475
2016-07-21T01:09:14.908Z,74471
2016-07-21T01:09:23.603Z,74475
2016-07-21T01:09:32.328Z,74477
2016-07-21T01:09:41.083Z,74475
2016-07-21T01:09:49.809Z,74475
2016-07-21T01:09:58.519Z,74477
2016-07-21T01:10:07.235Z,74477
2016-07-21T01:10:15.939Z,74475
2016-07-21T01:10:24.662Z,74473
2016-07-21T01:10:33.415Z,74476
2016-07-21T01:10:42.142Z,74472
2016-07-21T01:10:50.862Z,74471
2016-07-21T01:10:59.582Z,74478
2016-07-21T01:11:08.972Z,74474
2016-07-21T01:11:17.698Z,74475
2016-07-21T01:11:26.428Z,74474
2016-07-21T01:11:35.143Z,74476
2016-07-21T01:11:43.860Z,74472
2016-07-21T01:11:52.569Z,74471
2016-07-21T01:12:01.261Z,74475
2016-07-21T01:12:09.966Z,74474
2016-07-21T01:12:18.689Z,74473
2016-07-21T01:12:27.393Z,74474
2016-07-21T01:12:36.116Z,74473
2016-07-21T01:12:44.882Z,74470
2016-07-21T01:12:53.594Z,74473
2016-07-21T01:13:02.281Z,74473
2016-07-21T01:13:11.013Z,74471
2016-07-21T01:13:19.742Z,74472
2016-07-21T01:13:28.467Z,74472
2016-07-21T01:13:37.223Z,74474
2016-07-21T01:13:45.905Z,74472
2016-07-21T01:13:54.603Z,74472
2016-07-21T01:14:03.305Z,74473
2016-07-21T01:14:12.025Z,74470
2016-07-21T01:14:20.744Z,74470
2016-07-21T01:14:29.419Z,74470
2016-07-21T01:14:38.105Z,74471
2016-07-21T01:14:46.824Z,74473
2016-07-21T01:14:55.560Z,74475
2016-07-21T01:15:04.314Z,74472
2016-07-21T01:15:12.997Z,74471
2016-07-21T01:15:21.711Z,74473
2016-07-21T01:15:30.429Z,74473
2016-07-21T01:15:39.127Z,74471
2016-07-21T01:15:47.800Z,74473
2016-07-21T01:15:56.459Z,74469
2016-07-21T01:16:05.208Z,74470
2016-07-21T01:16:13.906Z,74471
2016-07-21T01:16:22.614Z,74471
2016-07-21T01:16:31.333Z,74471
2016-07-21T01:16:39.995Z,74471
2016-07-21T01:16:48.707Z,74469
2016-07-21T01:16:57.405Z,74469
2016-07-21T01:17:06.117Z,74473
2016-07-21T01:17:14.841Z,74468
2016-07-21T01:17:23.569Z,74469
2016-07-21T01:17:32.286Z,74471
2016-07-21T01:17:41.018Z,74472
2016-07-21T01:17:49.674Z,74465
2016-07-21T01:17:58.388Z,74473
2016-07-21T01:18:07.066Z,74469
2016-07-21T01:18:15.769Z,74468
2016-07-21T01:18:24.492Z,74470
2016-07-21T01:18:33.232Z,74471
2016-07-21T01:18:41.964Z,74470
2016-07-21T01:18:50.678Z,74468
2016-07-21T01:18:59.396Z,74470
2016-07-21T01:19:08.097Z,74467
2016-07-21T01:19:16.797Z,74472
2016-07-21T01:19:25.461Z,74472
2016-07-21T01:19:34.223Z,74470
2016-07-21T01:19:43.660Z,74470
2016-07-21T01:19:52.374Z,74471
2016-07-21T01:20:01.089Z,74470
2016-07-21T01:20:09.865Z,74468
2016-07-21T01:20:18.604Z,74469
2016-07-21T01:20:27.295Z,74473
2016-07-21T01:20:36.013Z,74470
2016-07-21T01:20:44.699Z,74471
2016-07-21T01:20:53.391Z,74470
2016-07-21T01:21:02.078Z,74469
2016-07-21T01:21:10.802Z,74470
2016-07-21T01:21:19.482Z,74471
2016-07-21T01:21:28.174Z,74468
2016-07-21T01:21:36.889Z,74471
2016-07-21T01:21:45.587Z,74469
2016-07-21T01:21:54.260Z,74468
2016-07-21T01:22:03.015Z,74474
2016-07-21T01:22:11.727Z,74469
2016-07-21T01:22:20.429Z,74465
2016-07-21T01:22:29.174Z,74468
2016-07-21T01:22:38.588Z,74470
2016-07-21T01:22:47.269Z,74470
2016-07-21T01:22:55.991Z,74471
2016-07-21T01:23:04.683Z,74471
2016-07-21T01:23:13.367Z,74468
2016-07-21T01:23:22.098Z,74470
2016-07-21T01:23:30.793Z,74468
2016-07-21T01:23:39.490Z,74468
2016-07-21T01:23:48.199Z,74471
2016-07-21T01:23:56.945Z,74467
2016-07-21T01:24:05.675Z,74471
2016-07-21T01:24:14.440Z,74466
2016-07-21T01:24:23.161Z,74467
2016-07-21T01:24:31.879Z,74467
2016-07-21T01:24:40.588Z,74469
2016-07-21T01:24:49.269Z,74471
2016-07-21T01:24:58.000Z,74470
2016-07-21T01:25:06.738Z,74471
2016-07-21T01:25:15.400Z,74469
2016-07-21T01:25:24.061Z,74471
2016-07-21T01:25:32.770Z,74468
2016-07-21T01:25:41.467Z,74471
2016-07-21T01:25:50.171Z,74469
2016-07-21T01:25:58.860Z,74469
2016-07-21T01:26:07.579Z,74470
2016-07-21T01:26:16.291Z,74469
2016-07-21T01:26:25.692Z,74471
2016-07-21T01:26:34.407Z,74471
2016-07-21T01:26:43.094Z,74468
2016-07-21T01:26:51.826Z,74471
2016-07-21T01:27:00.528Z,74468
2016-07-21T01:27:09.292Z,74471
2016-07-21T01:27:18.710Z,74471
2016-07-21T01:27:27.426Z,74471
2016-07-21T01:27:36.178Z,74470
2016-07-21T01:27:44.907Z,74473
2016-07-21T01:27:53.636Z,74474
2016-07-21T01:28:02.389Z,74469
2016-07-21T01:28:11.103Z,74467
2016-07-21T01:28:19.833Z,74468
2016-07-21T01:28:28.564Z,74468
2016-07-21T01:28:37.238Z,74470
2016-07-21T01:28:45.927Z,74471
2016-07-21T01:28:54.666Z,74470
2016-07-21T01:29:03.390Z,74471
2016-07-21T01:29:12.165Z,74469
2016-07-21T01:29:20.868Z,74468
2016-07-21T01:29:29.634Z,74467
2016-07-21T01:29:38.351Z,74470
2016-07-21T01:29:47.028Z,74466
2016-07-21T01:29:55.711Z,74468
2016-07-21T01:30:04.451Z,74471
2016-07-21T01:30:13.149Z,74467
2016-07-21T01:30:21.873Z,74470
2016-07-21T01:30:30.596Z,74471
2016-07-21T01:30:39.318Z,74469
2016-07-21T01:30:48.007Z,74470
2016-07-21T01:30:57.412Z,74469
2016-07-21T01:31:06.182Z,74469
2016-07-21T01:31:14.875Z,74469
2016-07-21T01:31:23.570Z,74474
2016-07-21T01:31:32.247Z,74470
2016-07-21T01:31:40.942Z,74467
2016-07-21T01:31:49.676Z,74470
2016-07-21T01:31:58.415Z,74470
2016-07-21T01:32:07.106Z,74468
2016-07-21T01:32:15.801Z,74472
2016-07-21T01:32:24.517Z,74470
2016-07-21T01:32:33.221Z,74471
2016-07-21T01:32:41.922Z,74469
2016-07-21T01:32:50.611Z,74471
2016-07-21T01:32:59.302Z,74468
2016-07-21T01:33:07.990Z,74471
2016-07-21T01:33:16.673Z,74467
2016-07-21T01:33:26.067Z,74468
2016-07-21T01:33:34.808Z,74467
2016-07-21T01:33:44.213Z,74472
2016-07-21T01:33:52.921Z,74472
2016-07-21T01:34:01.623Z,74471
2016-07-21T01:34:10.344Z,74470
2016-07-21T01:34:19.075Z,74472
2016-07-21T01:34:27.815Z,74470
2016-07-21T01:34:36.522Z,74471
2016-07-21T01:34:45.248Z,74469
2016-07-21T01:34:53.924Z,74468
2016-07-21T01:35:02.640Z,74469
2016-07-21T01:35:11.378Z,74470
2016-07-21T01:35:20.136Z,74466
2016-07-21T01:35:28.857Z,74465
2016-07-21T01:35:37.578Z,74466
2016-07-21T01:35:46.291Z,74468
2016-07-21T01:35:55.021Z,74469
2016-07-21T01:36:03.768Z,74464
2016-07-21T01:36:13.153Z,74460
2016-07-21T01:36:21.852Z,74467
2016-07-21T01:36:30.588Z,74465
2016-07-21T01:36:39.295Z,74465
2016-07-21T01:36:47.996Z,74467
2016-07-21T01:36:56.733Z,74469
2016-07-21T01:37:05.479Z,74471
2016-07-21T01:37:14.178Z,74468
2016-07-21T01:37:22.906Z,74469
2016-07-21T01:37:31.620Z,74465
2016-07-21T01:37:40.299Z,74465
2016-07-21T01:37:49.000Z,74466
2016-07-21T01:37:57.720Z,74465
2016-07-21T01:38:06.435Z,74462
2016-07-21T01:38:15.165Z,74463
2016-07-21T01:38:23.875Z,74463
2016-07-21T01:38:32.533Z,74465
2016-07-21T01:38:41.263Z,74465
2016-07-21T01:38:49.977Z,74462
2016-07-21T01:38:58.659Z,74460
2016-07-21T01:39:08.069Z,74463
2016-07-21T01:39:16.754Z,74460
2016-07-21T01:39:25.441Z,74458
2016-07-21T01:39:34.186Z,74457
2016-07-21T01:39:42.889Z,74459
2016-07-21T01:39:51.559Z,74461
2016-07-21T01:40:00.926Z,74457
2016-07-21T01:40:09.662Z,74455
2016-07-21T01:40:18.370Z,74455
2016-07-21T01:40:27.086Z,74454
2016-07-21T01:40:36.464Z,74455
2016-07-21T01:40:45.190Z,74456
2016-07-21T01:40:54.854Z,74458
2016-07-21T01:41:02.586Z,74455
2016-07-21T01:41:11.335Z,74456
2016-07-21T01:41:20.029Z,74455
2016-07-21T01:41:28.738Z,74454
2016-07-21T01:41:37.483Z,74452
2016-07-21T01:41:46.228Z,74458
2016-07-21T01:41:54.924Z,74456
2016-07-21T01:42:03.650Z,74450
2016-07-21T01:42:12.309Z,74454
2016-07-21T01:42:20.987Z,74453
2016-07-21T01:42:29.717Z,74451
2016-07-21T01:42:38.444Z,74454
2016-07-21T01:42:47.185Z,74455
2016-07-21T01:42:55.873Z,74454
2016-07-21T01:43:04.621Z,74452
2016-07-21T01:43:13.328Z,74453
2016-07-21T01:43:22.067Z,74453
2016-07-21T01:43:30.750Z,74456
2016-07-21T01:43:39.429Z,74457
2016-07-21T01:43:48.097Z,74452
2016-07-21T01:43:56.814Z,74452
2016-07-21T01:44:06.210Z,74452
2016-07-21T01:44:14.916Z,74451
2016-07-21T01:44:23.617Z,74452
2016-07-21T01:44:32.368Z,74451
2016-07-21T01:44:41.093Z,74450
2016-07-21T01:44:49.806Z,74452
2016-07-21T01:44:58.511Z,74454
2016-07-21T01:45:07.253Z,74455
2016-07-21T01:45:15.972Z,74452
2016-07-21T01:45:24.678Z,74450
2016-07-21T01:45:33.409Z,74453
2016-07-21T01:45:42.133Z,74454
2016-07-21T01:45:50.829Z,74452
2016-07-21T01:45:59.512Z,74457
2016-07-21T01:46:08.936Z,74455
2016-07-21T01:46:17.612Z,74451
2016-07-21T01:46:26.343Z,74452
2016-07-21T01:46:35.045Z,74454
2016-07-21T01:46:43.811Z,74452
2016-07-21T01:46:52.507Z,74455
2016-07-21T01:47:01.232Z,74454
2016-07-21T01:47:09.928Z,74452
2016-07-21T01:47:18.617Z,74456
2016-07-21T01:47:27.279Z,74450
2016-07-21T01:47:36.009Z,74451
2016-07-21T01:47:44.704Z,74449
2016-07-21T01:47:53.409Z,74450
2016-07-21T01:48:02.091Z,74451
2016-07-21T01:48:10.777Z,74454
2016-07-21T01:48:19.510Z,74447
2016-07-21T01:48:28.233Z,74452
2016-07-21T01:48:36.932Z,74451
2016-07-21T01:48:45.621Z,74449
2016-07-21T01:48:54.345Z,74447
2016-07-21T01:49:03.088Z,74447
2016-07-21T01:49:11.826Z,74452
2016-07-21T01:49:20.558Z,74452
2016-07-21T01:49:29.268Z,74451
2016-07-21T01:49:37.926Z,74447
2016-07-21T01:49:46.642Z,74446
2016-07-21T01:49:55.368Z,74449
2016-07-21T01:50:04.065Z,74452
2016-07-21T01:50:12.789Z,74453
2016-07-21T01:50:21.513Z,74457
2016-07-21T01:50:30.894Z,74455
2016-07-21T01:50:39.549Z,74451
2016-07-21T01:50:48.225Z,74449
2016-07-21T01:50:56.937Z,74449
2016-07-21T01:51:05.700Z,74451
2016-07-21T01:51:14.370Z,74452
2016-07-21T01:51:23.104Z,74451
2016-07-21T01:51:31.838Z,74450
2016-07-21T01:51:40.576Z,74453
2016-07-21T01:51:49.271Z,74449
2016-07-21T01:51:57.993Z,74449
2016-07-21T01:52:06.651Z,74449
2016-07-21T01:52:15.403Z,74448
2016-07-21T01:52:24.173Z,74446
2016-07-21T01:52:32.893Z,74453